createdAt,value
2018-07-16T00:00:51.130Z,1008.28
2018-07-16T00:01:51.066Z,1008.25
2018-07-16T00:02:50.998Z,1008.24
2018-07-16T00:03:50.923Z,1008.26
2018-07-16T00:04:50.866Z,1008.30
2018-07-16T00:05:50.787Z,1008.29
2018-07-16T00:06:50.716Z,1008.26
2018-07-16T00:07:50.644Z,1008.27
2018-07-16T00:08:50.577Z,1008.28
2018-07-16T00:09:50.512Z,1008.26
2018-07-16T00:10:50.439Z,1008.27
2018-07-16T00:11:50.364Z,1008.24
2018-07-16T00:12:50.303Z,1008.26
2018-07-16T00:13:50.228Z,1008.22
2018-07-16T00:14:50.155Z,1008.28
2018-07-16T00:15:50.095Z,1008.29
2018-07-16T00:16:50.021Z,1008.28
2018-07-16T00:17:49.960Z,1008.28
2018-07-16T00:18:49.885Z,1008.27
2018-07-16T00:19:49.810Z,1008.27
2018-07-16T00:20:49.738Z,1008.28
2018-07-16T00:21:49.672Z,1008.26
2018-07-16T00:22:49.602Z,1008.28
2018-07-16T00:23:49.533Z,1008.31
2018-07-16T00:24:49.458Z,1008.26
2018-07-16T00:25:49.395Z,1008.29
2018-07-16T00:26:49.329Z,1008.25
2018-07-16T00:27:49.251Z,1008.23
2018-07-16T00:28:49.195Z,1008.22
2018-07-16T00:29:49.111Z,1008.25
2018-07-16T00:30:49.046Z,1008.25
2018-07-16T00:31:48.974Z,1008.23
2018-07-16T00:32:48.908Z,1008.19
2018-07-16T00:33:48.830Z,1008.20
2018-07-16T00:34:48.761Z,1008.16
2018-07-16T00:35:48.693Z,1008.18
2018-07-16T00:36:48.629Z,1008.16
2018-07-16T00:37:48.556Z,1008.14
2018-07-16T00:38:48.484Z,1008.16
2018-07-16T00:39:48.414Z,1008.16
2018-07-16T00:40:48.342Z,1008.18
2018-07-16T00:41:48.276Z,1008.16
2018-07-16T00:42:48.204Z,1008.15
2018-07-16T00:43:48.134Z,1008.11
2018-07-16T00:44:48.068Z,1008.12
2018-07-16T00:45:48.000Z,1008.16
2018-07-16T00:46:47.924Z,1008.12
2018-07-16T00:47:47.859Z,1008.12
2018-07-16T00:48:47.787Z,1008.14
2018-07-16T00:49:47.721Z,1008.14
2018-07-16T00:50:47.641Z,1008.09
2018-07-16T00:51:47.574Z,1008.11
2018-07-16T00:52:47.497Z,1008.12
2018-07-16T00:53:47.435Z,1008.11
2018-07-16T00:54:47.362Z,1008.11
2018-07-16T00:55:47.355Z,1008.10
2018-07-16T00:56:47.220Z,1008.10
2018-07-16T00:57:47.158Z,1008.07
2018-07-16T00:58:47.081Z,1008.08
2018-07-16T00:59:47.013Z,1008.07
2018-07-16T01:00:46.945Z,1008.09
2018-07-16T01:01:46.872Z,1008.10
2018-07-16T01:02:46.802Z,1008.03
2018-07-16T01:03:46.732Z,1008.04
2018-07-16T01:04:46.655Z,1008.03
2018-07-16T01:05:46.589Z,1008.01
2018-07-16T01:06:46.518Z,1008.04
2018-07-16T01:07:46.443Z,1008.03
2018-07-16T01:08:46.374Z,1008.02
2018-07-16T01:09:46.308Z,1008.00
2018-07-16T01:10:46.241Z,1008.01
2018-07-16T01:11:46.167Z,1007.99
2018-07-16T01:12:46.105Z,1008.02
2018-07-16T01:13:46.025Z,1008.03
2018-07-16T01:14:45.953Z,1008.00
2018-07-16T01:15:45.883Z,1008.02
2018-07-16T01:16:45.815Z,1008.03
2018-07-16T01:17:45.739Z,1007.97
2018-07-16T01:18:45.671Z,1008.01
2018-07-16T01:19:45.602Z,1008.00
2018-07-16T01:20:45.533Z,1007.97
2018-07-16T01:21:45.463Z,1007.99
2018-07-16T01:22:45.388Z,1007.96
2018-07-16T01:23:45.320Z,1007.93
2018-07-16T01:24:45.248Z,1007.92
2018-07-16T01:25:45.179Z,1007.95
2018-07-16T01:26:45.111Z,1007.99
2018-07-16T01:27:45.040Z,1007.97
2018-07-16T01:28:44.965Z,1007.98
2018-07-16T01:29:44.895Z,1008.03
2018-07-16T01:30:44.828Z,1008.02
2018-07-16T01:31:44.797Z,1008.03
2018-07-16T01:32:44.688Z,1007.99
2018-07-16T01:33:44.619Z,1008.03
2018-07-16T01:34:44.541Z,1008.00
2018-07-16T01:35:44.473Z,1008.01
2018-07-16T01:36:44.411Z,1007.97
2018-07-16T01:37:44.330Z,1007.94
2018-07-16T01:38:44.262Z,1007.90
2018-07-16T01:39:44.185Z,1007.92
2018-07-16T01:40:44.119Z,1007.89
2018-07-16T01:41:44.046Z,1007.90
2018-07-16T01:42:43.974Z,1007.90
2018-07-16T01:43:43.907Z,1007.90
2018-07-16T01:44:43.835Z,1007.91
2018-07-16T01:45:43.761Z,1007.96
2018-07-16T01:46:43.692Z,1007.95
2018-07-16T01:47:43.623Z,1007.95
2018-07-16T01:48:43.550Z,1007.98
2018-07-16T01:49:43.483Z,1007.96
2018-07-16T01:50:43.405Z,1007.97
2018-07-16T01:51:43.335Z,1007.95
2018-07-16T01:52:43.267Z,1007.93
2018-07-16T01:53:43.211Z,1007.90
2018-07-16T01:54:43.131Z,1007.89
2018-07-16T01:55:43.053Z,1007.89
2018-07-16T01:56:42.982Z,1007.87
2018-07-16T01:57:42.910Z,1007.88
2018-07-16T01:58:42.837Z,1007.88
2018-07-16T01:59:42.771Z,1007.90
2018-07-16T02:00:42.698Z,1007.87
2018-07-16T02:01:42.628Z,1007.89
2018-07-16T02:02:42.556Z,1007.91
2018-07-16T02:03:42.490Z,1007.89
2018-07-16T02:04:42.414Z,1007.87
2018-07-16T02:05:42.344Z,1007.92
2018-07-16T02:06:42.275Z,1007.89
2018-07-16T02:07:42.200Z,1007.91
2018-07-16T02:08:42.131Z,1007.91
2018-07-16T02:09:42.063Z,1007.96
2018-07-16T02:10:41.993Z,1007.93
2018-07-16T02:11:41.924Z,1007.96
2018-07-16T02:12:41.846Z,1007.94
2018-07-16T02:13:41.776Z,1007.91
2018-07-16T02:14:41.712Z,1007.95
2018-07-16T02:15:41.629Z,1007.96
2018-07-16T02:16:41.571Z,1007.96
2018-07-16T02:17:41.494Z,1007.95
2018-07-16T02:18:41.419Z,1007.94
2018-07-16T02:19:41.349Z,1007.95
2018-07-16T02:20:41.281Z,1008.00
2018-07-16T02:21:41.207Z,1007.99
2018-07-16T02:22:41.142Z,1008.08
2018-07-16T02:23:41.060Z,1008.04
2018-07-16T02:24:40.998Z,1008.03
2018-07-16T02:25:40.921Z,1008.03
2018-07-16T02:26:40.876Z,1008.04
2018-07-16T02:27:40.776Z,1008.03
2018-07-16T02:28:40.711Z,1007.99
2018-07-16T02:29:40.640Z,1008.04
2018-07-16T02:30:40.565Z,1008.02
2018-07-16T02:31:40.494Z,1008.03
2018-07-16T02:32:40.427Z,1008.03
2018-07-16T02:33:40.352Z,1008.00
2018-07-16T02:34:40.280Z,1007.98
2018-07-16T02:35:40.204Z,1008.02
2018-07-16T02:36:40.153Z,1008.02
2018-07-16T02:37:40.070Z,1007.98
2018-07-16T02:38:40.014Z,1007.97
2018-07-16T02:39:39.922Z,1007.96
2018-07-16T02:40:39.854Z,1007.95
2018-07-16T02:41:39.782Z,1007.95
2018-07-16T02:42:39.707Z,1007.96
2018-07-16T02:43:39.639Z,1007.98
2018-07-16T02:44:39.567Z,1007.99
2018-07-16T02:45:39.500Z,1008.01
2018-07-16T02:46:39.424Z,1008.00
2018-07-16T02:47:39.363Z,1008.01
2018-07-16T02:48:39.277Z,1008.04
2018-07-16T02:49:39.209Z,1008.04
2018-07-16T02:50:39.139Z,1008.00
2018-07-16T02:51:39.066Z,1008.00
2018-07-16T02:52:39.003Z,1008.05
2018-07-16T02:53:38.921Z,1008.08
2018-07-16T02:54:38.853Z,1008.02
2018-07-16T02:55:38.779Z,1008.05
2018-07-16T02:56:38.713Z,1008.03
2018-07-16T02:57:38.639Z,1008.06
2018-07-16T02:58:38.566Z,1008.03
2018-07-16T02:59:38.492Z,1008.02
2018-07-16T03:00:38.428Z,1007.98
2018-07-16T03:01:38.355Z,1008.05
2018-07-16T03:02:38.280Z,1008.01
2018-07-16T03:03:38.207Z,1008.05
2018-07-16T03:04:38.136Z,1008.06
2018-07-16T03:05:38.061Z,1008.08
2018-07-16T03:06:37.992Z,1008.09
2018-07-16T03:07:37.919Z,1008.09
2018-07-16T03:08:37.849Z,1008.09
2018-07-16T03:09:37.775Z,1008.06
2018-07-16T03:10:37.707Z,1008.06
2018-07-16T03:11:37.637Z,1008.04
2018-07-16T03:12:37.567Z,1008.04
2018-07-16T03:13:37.496Z,1008.04
2018-07-16T03:14:37.422Z,1008.02
2018-07-16T03:15:37.355Z,1008.04
2018-07-16T03:16:37.281Z,1008.06
2018-07-16T03:17:37.228Z,1008.05
2018-07-16T03:18:37.155Z,1007.99
2018-07-16T03:19:37.058Z,1008.00
2018-07-16T03:20:36.990Z,1008.02
2018-07-16T03:21:36.924Z,1007.98
2018-07-16T03:22:36.850Z,1008.00
2018-07-16T03:23:36.770Z,1008.01
2018-07-16T03:24:36.702Z,1008.01
2018-07-16T03:25:36.629Z,1008.06
2018-07-16T03:26:36.554Z,1008.02
2018-07-16T03:27:36.487Z,1008.05
2018-07-16T03:28:36.416Z,1008.03
2018-07-16T03:29:36.346Z,1008.04
2018-07-16T03:30:36.279Z,1008.04
2018-07-16T03:31:36.202Z,1008.02
2018-07-16T03:32:36.128Z,1008.07
2018-07-16T03:33:36.055Z,1008.03
2018-07-16T03:34:35.984Z,1008.02
2018-07-16T03:35:35.912Z,1007.98
2018-07-16T03:36:35.848Z,1007.96
2018-07-16T03:37:35.776Z,1007.97
2018-07-16T03:38:35.698Z,1007.98
2018-07-16T03:39:35.624Z,1007.97
2018-07-16T03:40:35.554Z,1008.00
2018-07-16T03:41:35.485Z,1007.99
2018-07-16T03:42:35.413Z,1007.97
2018-07-16T03:43:35.338Z,1007.99
2018-07-16T03:44:35.265Z,1007.98
2018-07-16T03:45:35.195Z,1007.99
2018-07-16T03:46:35.122Z,1007.97
2018-07-16T03:47:35.050Z,1007.95
2018-07-16T03:48:34.979Z,1007.97
2018-07-16T03:49:34.909Z,1007.96
2018-07-16T03:50:34.837Z,1007.95
2018-07-16T03:51:34.763Z,1007.98
2018-07-16T03:52:34.695Z,1008.03
2018-07-16T03:53:34.621Z,1008.01
2018-07-16T03:54:34.555Z,1007.99
2018-07-16T03:55:34.483Z,1008.00
2018-07-16T03:56:34.405Z,1007.99
2018-07-16T03:57:34.331Z,1007.96
2018-07-16T03:58:34.259Z,1007.96
2018-07-16T03:59:34.188Z,1007.93
2018-07-16T04:00:34.127Z,1007.94
2018-07-16T04:01:34.072Z,1007.97
2018-07-16T04:02:33.966Z,1007.93
2018-07-16T04:03:33.902Z,1007.95
2018-07-16T04:04:33.822Z,1008.01
2018-07-16T04:05:33.755Z,1008.04
2018-07-16T04:06:33.689Z,1008.03
2018-07-16T04:07:33.611Z,1008.06
2018-07-16T04:08:33.540Z,1008.03
2018-07-16T04:09:33.473Z,1008.05
2018-07-16T04:10:33.414Z,1008.05
2018-07-16T04:11:33.320Z,1008.02
2018-07-16T04:12:33.271Z,1007.99
2018-07-16T04:13:33.181Z,1008.02
2018-07-16T04:14:33.109Z,1007.97
2018-07-16T04:15:33.046Z,1007.98
2018-07-16T04:16:32.968Z,1007.98
2018-07-16T04:17:32.892Z,1007.97
2018-07-16T04:18:32.823Z,1008.00
2018-07-16T04:19:32.751Z,1008.01
2018-07-16T04:20:32.683Z,1008.01
2018-07-16T04:21:32.604Z,1008.02
2018-07-16T04:22:32.533Z,1008.03
2018-07-16T04:23:32.462Z,1007.98
2018-07-16T04:24:32.390Z,1008.01
2018-07-16T04:25:32.323Z,1007.96
2018-07-16T04:26:32.244Z,1007.98
2018-07-16T04:27:32.172Z,1007.98
2018-07-16T04:28:32.102Z,1007.96
2018-07-16T04:29:32.031Z,1007.97
2018-07-16T04:30:31.965Z,1008.01
2018-07-16T04:31:31.890Z,1008.00
2018-07-16T04:32:31.815Z,1008.02
2018-07-16T04:33:31.739Z,1007.99
2018-07-16T04:34:31.671Z,1008.01
2018-07-16T04:35:31.598Z,1007.97
2018-07-16T04:36:31.530Z,1008.02
2018-07-16T04:37:31.454Z,1008.02
2018-07-16T04:38:31.381Z,1007.99
2018-07-16T04:39:31.308Z,1008.00
2018-07-16T04:40:31.235Z,1008.02
2018-07-16T04:41:31.167Z,1007.99
2018-07-16T04:42:31.093Z,1007.97
2018-07-16T04:43:31.021Z,1007.95
2018-07-16T04:44:30.953Z,1007.93
2018-07-16T04:45:30.873Z,1007.89
2018-07-16T04:46:30.804Z,1007.94
2018-07-16T04:47:30.736Z,1007.92
2018-07-16T04:48:30.664Z,1007.89
2018-07-16T04:49:30.591Z,1007.93
2018-07-16T04:50:30.519Z,1007.93
2018-07-16T04:51:30.454Z,1007.89
2018-07-16T04:52:30.380Z,1007.95
2018-07-16T04:53:30.302Z,1007.95
2018-07-16T04:54:30.234Z,1007.93
2018-07-16T04:55:30.161Z,1007.92
2018-07-16T04:56:30.088Z,1007.91
2018-07-16T04:57:30.016Z,1007.90
2018-07-16T04:58:29.947Z,1007.91
2018-07-16T04:59:29.885Z,1007.92
2018-07-16T05:00:29.806Z,1007.91
2018-07-16T05:01:29.729Z,1007.96
2018-07-16T05:02:29.663Z,1007.95
2018-07-16T05:03:29.586Z,1007.96
2018-07-16T05:04:29.509Z,1007.95
2018-07-16T05:05:29.442Z,1007.93
2018-07-16T05:06:29.368Z,1007.91
2018-07-16T05:07:29.301Z,1007.90
2018-07-16T05:08:29.230Z,1007.90
2018-07-16T05:09:29.155Z,1007.90
2018-07-16T05:10:29.085Z,1007.91
2018-07-16T05:11:29.008Z,1007.94
2018-07-16T05:12:28.937Z,1007.97
2018-07-16T05:13:28.897Z,1007.95
2018-07-16T05:14:28.798Z,1007.96
2018-07-16T05:15:28.730Z,1007.96
2018-07-16T05:16:28.653Z,1007.95
2018-07-16T05:17:28.580Z,1007.92
2018-07-16T05:18:28.695Z,1007.91
2018-07-16T05:19:28.437Z,1007.92
2018-07-16T05:20:28.369Z,1007.89
2018-07-16T05:21:28.296Z,1007.91
2018-07-16T05:22:28.226Z,1007.88
2018-07-16T05:23:28.155Z,1007.91
2018-07-16T05:24:28.085Z,1007.89
2018-07-16T05:25:28.012Z,1007.84
2018-07-16T05:26:27.943Z,1007.84
2018-07-16T05:27:27.870Z,1007.82
2018-07-16T05:28:27.797Z,1007.84
2018-07-16T05:29:27.726Z,1007.89
2018-07-16T05:30:27.654Z,1007.90
2018-07-16T05:31:27.598Z,1007.91
2018-07-16T05:32:27.704Z,1007.88
2018-07-16T05:46:03.814Z,1007.87
2018-07-16T05:47:35.599Z,1007.84
2018-07-16T05:48:35.496Z,1007.84
2018-07-16T05:50:28.252Z,1007.80
2018-07-16T05:51:29.208Z,1007.77
2018-07-16T05:53:20.942Z,1007.81
2018-07-16T05:54:20.875Z,1007.82
2018-07-16T05:56:13.625Z,1007.82
2018-07-16T05:57:13.545Z,1007.82
2018-07-16T05:59:06.328Z,1007.89
2018-07-16T06:00:06.238Z,1007.89
2018-07-16T06:01:59.018Z,1007.88
2018-07-16T06:02:58.927Z,1007.85
2018-07-16T06:04:51.699Z,1007.88
2018-07-16T06:05:51.624Z,1007.89
2018-07-16T06:07:44.433Z,1007.90
2018-07-16T06:08:44.346Z,1007.92
2018-07-16T06:10:37.106Z,1007.92
2018-07-16T06:11:37.034Z,1007.89
2018-07-16T06:13:29.808Z,1007.94
2018-07-16T06:14:29.762Z,1007.97
2018-07-16T06:16:22.488Z,1007.91
2018-07-16T06:17:22.410Z,1007.92
2018-07-16T06:19:15.223Z,1007.95
2018-07-16T06:20:15.100Z,1007.93
2018-07-16T06:22:07.866Z,1007.95
2018-07-16T06:23:07.782Z,1007.92
2018-07-16T06:25:00.664Z,1007.89
2018-07-16T06:26:00.580Z,1007.87
2018-07-16T06:27:53.501Z,1007.84
2018-07-16T06:28:53.382Z,1007.79
2018-07-16T06:30:46.251Z,1007.79
2018-07-16T06:31:46.187Z,1007.77
2018-07-16T06:33:38.955Z,1007.79
2018-07-16T06:34:38.871Z,1007.73
2018-07-16T06:36:31.631Z,1007.76
2018-07-16T06:37:31.569Z,1007.77
2018-07-16T06:39:24.322Z,1007.72
2018-07-16T06:40:24.281Z,1007.73
2018-07-16T06:42:17.011Z,1007.71
2018-07-16T06:43:16.931Z,1007.73
2018-07-16T06:45:09.697Z,1007.73
2018-07-16T06:46:09.621Z,1007.74
2018-07-16T06:48:02.454Z,1007.70
2018-07-16T06:49:02.311Z,1007.71
2018-07-16T06:50:55.071Z,1007.72
2018-07-16T06:51:55.001Z,1007.72
2018-07-16T06:53:47.912Z,1007.72
2018-07-16T06:54:47.823Z,1007.73
2018-07-16T06:56:40.611Z,1007.74
2018-07-16T06:57:40.540Z,1007.78
2018-07-16T06:59:33.309Z,1007.76
2018-07-16T07:00:33.225Z,1007.80
2018-07-16T07:02:26.080Z,1007.81
2018-07-16T07:03:25.942Z,1007.81
2018-07-16T07:05:18.686Z,1007.81
2018-07-16T07:06:18.613Z,1007.75
2018-07-16T07:08:11.387Z,1007.77
2018-07-16T07:09:11.308Z,1007.73
2018-07-16T07:11:04.084Z,1007.73
2018-07-16T07:12:04.005Z,1007.70
2018-07-16T07:13:56.897Z,1007.65
2018-07-16T07:14:56.816Z,1007.64
2018-07-16T07:16:49.664Z,1007.65
2018-07-16T07:17:49.586Z,1007.63
2018-07-16T07:19:42.366Z,1007.64
2018-07-16T07:20:42.288Z,1007.63
2018-07-16T07:22:35.055Z,1007.68
2018-07-16T07:23:34.980Z,1007.65
2018-07-16T07:25:27.753Z,1007.70
2018-07-16T07:26:27.664Z,1007.66
2018-07-16T07:28:20.434Z,1007.69
2018-07-16T07:29:20.360Z,1007.70
2018-07-16T07:31:13.121Z,1007.68
2018-07-16T07:32:13.050Z,1007.66
2018-07-16T07:34:05.843Z,1007.65
2018-07-16T07:35:05.848Z,1007.62
2018-07-16T07:36:58.635Z,1007.61
2018-07-16T07:37:58.581Z,1007.60
2018-07-16T07:38:58.489Z,1007.64
2018-07-16T07:39:58.422Z,1007.65
2018-07-16T07:40:58.351Z,1007.60
2018-07-16T07:41:58.290Z,1007.65
2018-07-16T07:42:58.221Z,1007.64
2018-07-16T07:43:58.153Z,1007.60
2018-07-16T07:44:58.078Z,1007.62
2018-07-16T07:45:58.011Z,1007.60
2018-07-16T07:46:57.940Z,1007.57
2018-07-16T07:47:57.875Z,1007.59
2018-07-16T07:48:57.812Z,1007.57
2018-07-16T07:49:57.739Z,1007.57
2018-07-16T07:50:57.682Z,1007.54
2018-07-16T07:51:57.628Z,1007.53
2018-07-16T07:52:57.534Z,1007.52
2018-07-16T07:53:57.466Z,1007.54
2018-07-16T07:54:57.774Z,1007.53
2018-07-16T07:55:57.329Z,1007.52
2018-07-16T07:56:57.266Z,1007.54
2018-07-16T07:57:57.197Z,1007.54
2018-07-16T07:58:57.167Z,1007.60
2018-07-16T07:59:57.061Z,1007.56
2018-07-16T08:00:56.990Z,1007.56
2018-07-16T08:01:56.926Z,1007.57
2018-07-16T08:02:56.858Z,1007.53
2018-07-16T08:03:56.787Z,1007.54
2018-07-16T08:04:56.718Z,1007.52
2018-07-16T08:05:56.652Z,1007.55
2018-07-16T08:06:56.584Z,1007.53
2018-07-16T08:07:56.519Z,1007.53
2018-07-16T08:08:56.447Z,1007.50
2018-07-16T08:09:56.381Z,1007.54
2018-07-16T08:10:56.314Z,1007.54
2018-07-16T08:11:56.314Z,1007.52
2018-07-16T08:12:56.197Z,1007.54
2018-07-16T08:13:56.111Z,1007.48
2018-07-16T08:14:56.042Z,1007.46
2018-07-16T08:15:55.987Z,1007.48
2018-07-16T08:16:55.907Z,1007.44
2018-07-16T08:17:55.844Z,1007.46
2018-07-16T08:18:55.775Z,1007.48
2018-07-16T08:19:55.706Z,1007.46
2018-07-16T08:20:55.708Z,1007.46
2018-07-16T08:21:55.564Z,1007.44
2018-07-16T08:22:55.503Z,1007.41
2018-07-16T08:23:55.439Z,1007.42
2018-07-16T08:24:55.368Z,1007.38
2018-07-16T08:25:55.325Z,1007.36
2018-07-16T08:26:55.235Z,1007.37
2018-07-16T08:27:55.168Z,1007.42
2018-07-16T08:28:55.098Z,1007.39
2018-07-16T08:29:55.040Z,1007.39
2018-07-16T08:30:55.049Z,1007.37
2018-07-16T08:31:54.898Z,1007.36
2018-07-16T08:32:54.831Z,1007.42
2018-07-16T08:33:54.762Z,1007.37
2018-07-16T08:34:54.701Z,1007.43
2018-07-16T08:35:54.627Z,1007.40
2018-07-16T08:36:54.563Z,1007.31
2018-07-16T08:37:54.488Z,1007.32
2018-07-16T08:38:54.434Z,1007.35
2018-07-16T08:39:54.434Z,1007.37
2018-07-16T08:40:54.307Z,1007.35
2018-07-16T08:41:54.233Z,1007.38
2018-07-16T08:42:54.176Z,1007.34
2018-07-16T08:43:54.099Z,1007.37
2018-07-16T08:44:54.020Z,1007.36
2018-07-16T08:45:53.957Z,1007.37
2018-07-16T08:46:53.897Z,1007.40
2018-07-16T08:47:53.826Z,1007.34
2018-07-16T08:48:53.758Z,1007.33
2018-07-16T08:49:53.689Z,1007.35
2018-07-16T08:50:53.625Z,1007.33
2018-07-16T08:51:53.549Z,1007.35
2018-07-16T08:52:53.532Z,1007.38
2018-07-16T08:53:53.423Z,1007.41
2018-07-16T08:54:53.362Z,1007.36
2018-07-16T08:55:53.284Z,1007.40
2018-07-16T08:56:53.222Z,1007.39
2018-07-16T08:57:53.155Z,1007.40
2018-07-16T08:58:53.087Z,1007.41
2018-07-16T08:59:53.024Z,1007.38
2018-07-16T09:00:52.953Z,1007.37
2018-07-16T09:01:52.892Z,1007.38
2018-07-16T09:02:52.828Z,1007.45
2018-07-16T09:03:52.758Z,1007.39
2018-07-16T09:04:52.687Z,1007.43
2018-07-16T09:05:52.622Z,1007.41
2018-07-16T09:06:52.556Z,1007.43
2018-07-16T09:07:52.489Z,1007.39
2018-07-16T09:08:52.426Z,1007.40
2018-07-16T09:09:52.351Z,1007.38
2018-07-16T09:10:52.331Z,1007.37
2018-07-16T09:11:52.226Z,1007.40
2018-07-16T09:12:52.161Z,1007.46
2018-07-16T09:13:52.090Z,1007.46
2018-07-16T09:14:52.028Z,1007.49
2018-07-16T09:15:51.973Z,1007.48
2018-07-16T09:16:51.981Z,1007.49
2018-07-16T09:17:51.827Z,1007.51
2018-07-16T09:18:51.762Z,1007.54
2018-07-16T09:19:51.695Z,1007.52
2018-07-16T09:20:51.637Z,1007.58
2018-07-16T09:21:51.573Z,1007.54
2018-07-16T09:22:51.503Z,1007.54
2018-07-16T09:23:51.442Z,1007.54
2018-07-16T09:24:51.379Z,1007.56
2018-07-16T09:25:51.317Z,1007.53
2018-07-16T09:26:51.257Z,1007.57
2018-07-16T09:27:51.195Z,1007.60
2018-07-16T09:28:51.132Z,1007.57
2018-07-16T09:29:51.073Z,1007.54
2018-07-16T09:30:51.014Z,1007.52
2018-07-16T09:31:50.948Z,1007.52
2018-07-16T09:32:50.919Z,1007.55
2018-07-16T09:33:50.835Z,1007.50
2018-07-16T09:34:50.777Z,1007.49
2018-07-16T09:35:50.717Z,1007.48
2018-07-16T09:36:50.662Z,1007.49
2018-07-16T09:37:50.597Z,1007.48
2018-07-16T09:38:50.557Z,1007.46
2018-07-16T09:39:50.495Z,1007.50
2018-07-16T09:40:50.434Z,1007.49
2018-07-16T09:41:50.374Z,1007.48
2018-07-16T09:42:50.321Z,1007.55
2018-07-16T09:43:50.262Z,1007.49
2018-07-16T09:44:50.210Z,1007.45
2018-07-16T09:45:50.153Z,1007.48
2018-07-16T09:46:50.099Z,1007.46
2018-07-16T09:47:50.044Z,1007.43
2018-07-16T09:48:49.985Z,1007.43
2018-07-16T09:49:49.936Z,1007.42
2018-07-16T09:50:49.872Z,1007.43
2018-07-16T09:51:49.830Z,1007.46
2018-07-16T09:52:49.762Z,1007.45
2018-07-16T09:53:49.710Z,1007.44
2018-07-16T09:54:49.658Z,1007.42
2018-07-16T09:55:49.602Z,1007.43
2018-07-16T09:56:49.553Z,1007.42
2018-07-16T09:57:49.496Z,1007.39
2018-07-16T09:58:49.440Z,1007.39
2018-07-16T09:59:49.387Z,1007.36
2018-07-16T10:00:49.336Z,1007.39
2018-07-16T10:01:49.280Z,1007.41
2018-07-16T10:02:49.221Z,1007.37
2018-07-16T10:03:49.172Z,1007.36
2018-07-16T10:04:49.119Z,1007.34
2018-07-16T10:05:49.066Z,1007.28
2018-07-16T10:06:49.017Z,1007.29
2018-07-16T10:07:48.963Z,1007.29
2018-07-16T10:08:48.909Z,1007.27
2018-07-16T10:09:48.863Z,1007.25
2018-07-16T10:10:48.804Z,1007.26
2018-07-16T10:11:48.758Z,1007.28
2018-07-16T10:12:48.702Z,1007.30
2018-07-16T10:13:48.654Z,1007.27
2018-07-16T10:14:48.598Z,1007.25
2018-07-16T10:15:48.543Z,1007.26
2018-07-16T10:16:48.492Z,1007.24
2018-07-16T10:17:48.444Z,1007.22
2018-07-16T10:18:48.399Z,1007.22
2018-07-16T10:19:48.339Z,1007.27
2018-07-16T10:20:48.291Z,1007.20
2018-07-16T10:21:48.238Z,1007.21
2018-07-16T10:22:48.188Z,1007.18
2018-07-16T10:23:48.136Z,1007.19
2018-07-16T10:24:48.084Z,1007.19
2018-07-16T10:25:48.044Z,1007.16
2018-07-16T10:26:47.984Z,1007.17
2018-07-16T10:27:47.941Z,1007.17
2018-07-16T10:28:47.891Z,1007.18
2018-07-16T10:29:47.832Z,1007.21
2018-07-16T10:30:47.786Z,1007.22
2018-07-16T10:31:47.730Z,1007.21
2018-07-16T10:32:47.676Z,1007.20
2018-07-16T10:33:47.681Z,1007.20
2018-07-16T10:34:47.593Z,1007.18
2018-07-16T10:35:47.536Z,1007.18
2018-07-16T10:36:47.478Z,1007.18
2018-07-16T10:37:47.428Z,1007.17
2018-07-16T10:38:47.378Z,1007.17
2018-07-16T10:39:47.325Z,1007.14
2018-07-16T10:40:47.283Z,1007.12
2018-07-16T10:41:47.226Z,1007.11
2018-07-16T10:42:47.181Z,1007.13
2018-07-16T10:43:47.123Z,1007.10
2018-07-16T10:44:47.074Z,1007.14
2018-07-16T10:45:47.026Z,1007.12
2018-07-16T10:46:46.976Z,1007.13
2018-07-16T10:47:46.922Z,1007.14
2018-07-16T10:48:46.887Z,1007.12
2018-07-16T10:49:46.877Z,1007.00
2018-07-16T10:50:46.766Z,1006.99
2018-07-16T10:51:46.720Z,1006.98
2018-07-16T10:52:46.672Z,1006.95
2018-07-16T10:53:46.612Z,1006.96
2018-07-16T10:54:46.566Z,1006.90
2018-07-16T10:55:46.519Z,1006.94
2018-07-16T10:56:46.460Z,1006.94
2018-07-16T10:57:46.405Z,1006.90
2018-07-16T10:58:46.354Z,1007.00
2018-07-16T10:59:46.298Z,1006.98
2018-07-16T11:00:46.243Z,1006.91
2018-07-16T11:01:46.187Z,1006.92
2018-07-16T11:02:46.131Z,1006.92
2018-07-16T11:03:46.076Z,1006.92
2018-07-16T11:04:46.021Z,1006.87
2018-07-16T11:05:45.994Z,1006.85
2018-07-16T11:06:45.909Z,1006.90
2018-07-16T11:07:45.854Z,1006.84
2018-07-16T11:08:45.802Z,1006.82
2018-07-16T11:09:45.735Z,1006.78
2018-07-16T11:10:45.679Z,1006.78
2018-07-16T11:11:45.625Z,1006.74
2018-07-16T11:12:45.566Z,1006.74
2018-07-16T11:13:45.506Z,1006.77
2018-07-16T11:14:45.518Z,1006.74
2018-07-16T11:15:45.380Z,1006.73
2018-07-16T11:16:45.321Z,1006.74
2018-07-16T11:17:45.269Z,1006.78
2018-07-16T11:18:45.201Z,1006.80
2018-07-16T11:19:45.152Z,1006.79
2018-07-16T11:20:45.090Z,1006.82
2018-07-16T11:21:45.034Z,1006.91
2018-07-16T11:22:44.969Z,1007.02
2018-07-16T11:23:44.905Z,1007.06
2018-07-16T11:24:44.846Z,1006.96
2018-07-16T11:25:44.789Z,1006.93
2018-07-16T11:26:44.727Z,1006.82
2018-07-16T11:27:44.671Z,1006.78
2018-07-16T11:28:44.598Z,1006.74
2018-07-16T11:29:44.546Z,1006.74
2018-07-16T11:30:44.483Z,1006.90
2018-07-16T11:31:44.431Z,1006.81
2018-07-16T11:32:44.385Z,1006.75
2018-07-16T11:33:44.318Z,1006.73
2018-07-16T11:34:44.248Z,1006.69
2018-07-16T11:35:44.193Z,1006.73
2018-07-16T11:36:44.137Z,1006.74
2018-07-16T11:37:44.144Z,1006.70
2018-07-16T11:38:44.014Z,1006.73
2018-07-16T11:39:43.948Z,1006.74
2018-07-16T11:40:43.891Z,1006.73
2018-07-16T11:41:43.828Z,1006.68
2018-07-16T11:42:43.789Z,1006.70
2018-07-16T11:43:43.716Z,1006.68
2018-07-16T11:44:43.647Z,1006.60
2018-07-16T11:45:43.588Z,1006.61
2018-07-16T11:46:43.532Z,1006.62
2018-07-16T11:47:43.466Z,1006.61
2018-07-16T11:48:43.408Z,1006.60
2018-07-16T11:49:43.350Z,1006.52
2018-07-16T11:50:43.303Z,1006.57
2018-07-16T11:51:43.218Z,1006.52
2018-07-16T11:52:43.219Z,1006.56
2018-07-16T11:53:43.108Z,1006.54
2018-07-16T11:54:43.046Z,1006.55
2018-07-16T11:55:42.980Z,1006.55
2018-07-16T11:56:42.923Z,1006.48
2018-07-16T11:57:42.859Z,1006.50
2018-07-16T11:58:42.794Z,1006.47
2018-07-16T11:59:42.727Z,1006.46
2018-07-16T12:00:42.670Z,1006.47
2018-07-16T12:01:42.665Z,1006.50
2018-07-16T12:02:42.547Z,1006.40
2018-07-16T12:03:42.492Z,1006.39
2018-07-16T12:04:42.422Z,1006.34
2018-07-16T12:05:42.360Z,1006.45
2018-07-16T12:06:42.305Z,1006.40
2018-07-16T12:07:42.239Z,1006.38
2018-07-16T12:08:42.176Z,1006.34
2018-07-16T12:09:42.116Z,1006.30
2018-07-16T12:10:42.061Z,1006.29
2018-07-16T12:11:41.994Z,1006.24
2018-07-16T12:12:41.962Z,1006.21
2018-07-16T12:13:41.866Z,1006.22
2018-07-16T12:14:41.809Z,1006.25
2018-07-16T12:15:41.748Z,1006.17
2018-07-16T12:16:41.685Z,1006.14
2018-07-16T12:17:41.623Z,1006.18
2018-07-16T12:18:41.555Z,1006.19
2018-07-16T12:19:41.500Z,1006.17
2018-07-16T12:20:41.445Z,1006.20
2018-07-16T12:21:41.375Z,1006.17
2018-07-16T12:22:41.312Z,1006.17
2018-07-16T12:23:41.251Z,1006.15
2018-07-16T12:24:41.185Z,1006.16
2018-07-16T12:25:41.126Z,1006.16
2018-07-16T12:26:41.063Z,1006.14
2018-07-16T12:27:41.000Z,1006.11
2018-07-16T12:28:40.940Z,1006.09
2018-07-16T12:29:40.876Z,1006.06
2018-07-16T12:30:40.816Z,1006.03
2018-07-16T12:31:40.757Z,1006.00
2018-07-16T12:32:40.731Z,1006.03
2018-07-16T12:33:40.629Z,1006.04
2018-07-16T12:34:40.604Z,1006.02
2018-07-16T12:35:40.505Z,1005.97
2018-07-16T12:36:40.442Z,1005.99
2018-07-16T12:37:40.378Z,1006.02
2018-07-16T12:38:40.313Z,1006.00
2018-07-16T12:39:40.255Z,1005.94
2018-07-16T12:40:40.192Z,1005.95
2018-07-16T12:41:40.137Z,1005.95
2018-07-16T12:42:40.064Z,1005.93
2018-07-16T12:43:39.996Z,1005.89
2018-07-16T12:44:39.948Z,1005.87
2018-07-16T12:45:39.869Z,1005.86
2018-07-16T12:46:39.812Z,1005.85
2018-07-16T12:47:39.750Z,1005.80
2018-07-16T12:48:39.687Z,1005.81
2018-07-16T12:49:39.623Z,1005.77
2018-07-16T12:50:39.565Z,1005.83
2018-07-16T12:51:39.497Z,1005.80